Time;durP1;ratioP1;P1;durP2;ratioP2;P2;SDS_P1;SDS_P2;PMS_P1;PMS_P2;Temp;Humidity;BMP_temperature;BMP_pressure;BME280_temperature;BME280_humidity;BME280_pressure;Samples;Min_cycle;Max_cycle;Signal;HPM_P1;HPM_P2
2023/03/09 00:01:19;;;;;;;;;;;20.30;53.90;;;;;;1557488;74;1179;-60
2023/03/09 00:03:21;;;;;;;;;;;20.30;54.10;;;;;;1564134;75;801;-61
2023/03/09 00:05:23;;;;;;;;;;;20.20;53.90;;;;;;1568699;75;680;-60
2023/03/09 00:07:24;;;;;;;;;;;20.30;54.00;;;;;;1555699;75;807;-60
2023/03/09 00:09:26;;;;;;;;;;;20.40;53.90;;;;;;1560512;75;1946;-61
2023/03/09 00:11:28;;;;;;;;;;;20.30;53.80;;;;;;1561479;75;1145;-60
2023/03/09 00:13:30;;;;;;;;;;;20.40;53.90;;;;;;1559069;75;732;-59
2023/03/09 00:15:32;;;;;;;;;;;20.30;53.80;;;;;;1562548;74;786;-59
2023/03/09 00:17:34;;;;;;;;;;;20.50;53.60;;;;;;1558965;74;671;-60
2023/03/09 00:19:36;;;;;;;;;;;20.60;53.40;;;;;;1553693;75;789;-60
2023/03/09 00:21:39;;;;;;;;;;;20.60;53.30;;;;;;1557318;74;1120;-60
2023/03/09 00:23:41;;;;;;;;;;;20.50;53.20;;;;;;1564493;74;1538;-61
2023/03/09 00:25:43;;;;;;;;;;;20.60;53.20;;;;;;1553232;74;735;-60
2023/03/09 00:27:47;;;;;;;;;;;20.60;53.10;;;;;;1569582;75;702;-61
2023/03/09 00:29:49;;;;;;;;;;;20.60;53.10;;;;;;1548746;75;1923;-59
2023/03/09 00:31:50;;;;;;;;;;;20.60;53.00;;;;;;1560583;75;1148;-59
2023/03/09 00:33:52;;;;;;;;;;;20.70;53.00;;;;;;1559962;74;679;-59
2023/03/09 00:35:54;;;;;;;;;;;20.70;53.00;;;;;;1551149;74;745;-58
2023/03/09 00:37:56;;;;;;;;;;;20.70;52.90;;;;;;1560133;74;1242;-60
2023/03/09 00:39:58;;;;;;;;;;;20.80;53.00;;;;;;1549690;74;711;-59
2023/03/09 00:42:00;;;;;;;;;;;20.60;52.80;;;;;;1562423;74;1320;-60
2023/03/09 00:44:02;;;;;;;;;;;20.70;53.00;;;;;;1549441;75;810;-60
2023/03/09 00:46:04;;;;;;;;;;;20.70;53.00;;;;;;1555395;75;726;-60
2023/03/09 00:48:06;;;;;;;;;;;20.60;52.80;;;;;;1559260;74;760;-60
2023/03/09 00:50:08;;;;;;;;;;;20.70;53.00;;;;;;1557856;75;1934;-60
2023/03/09 00:52:10;;;;;;;;;;;20.70;52.90;;;;;;1546828;75;1564;-60
2023/03/09 00:54:12;;;;;;;;;;;20.70;52.80;;;;;;1549664;75;666;-59
2023/03/09 00:56:16;;;;;;;;;;;20.70;52.80;;;;;;1550115;75;803;-60
2023/03/09 00:58:18;;;;;;;;;;;20.70;52.70;;;;;;1559066;75;1853;-61
2023/03/09 01:00:20;;;;;;;;;;;20.80;52.60;;;;;;1560553;74;709;-60
2023/03/09 01:02:22;;;;;;;;;;;20.80;52.60;;;;;;1560321;75;1177;-61
2023/03/09 01:04:24;;;;;;;;;;;20.70;52.70;;;;;;1548390;75;746;-60
2023/03/09 01:06:25;;;;;;;;;;;20.70;52.70;;;;;;1552663;75;1503;-59
2023/03/09 01:08:27;;;;;;;;;;;20.70;52.70;;;;;;1544320;75;736;-60
2023/03/09 01:10:29;;;;;;;;;;;20.70;52.80;;;;;;1558714;75;1926;-60
2023/03/09 01:12:31;;;;;;;;;;;20.80;52.70;;;;;;1545545;75;1137;-59
2023/03/09 01:14:33;;;;;;;;;;;20.70;52.80;;;;;;1553266;75;765;-60
2023/03/09 01:16:35;;;;;;;;;;;20.70;53.10;;;;;;1557663;75;737;-59
2023/03/09 01:18:37;;;;;;;;;;;20.70;53.10;;;;;;1549056;75;752;-60
2023/03/09 01:20:39;;;;;;;;;;;20.80;53.10;;;;;;1553523;75;1289;-60
2023/03/09 01:22:41;;;;;;;;;;;20.70;53.50;;;;;;1552339;75;1094;-60
2023/03/09 01:24:43;;;;;;;;;;;20.60;53.50;;;;;;1555687;75;669;-60
2023/03/09 01:26:45;;;;;;;;;;;20.60;53.80;;;;;;1546814;74;796;-59
2023/03/09 01:28:47;;;;;;;;;;;20.50;53.90;;;;;;1559220;75;737;-59
2023/03/09 01:30:48;;;;;;;;;;;20.60;54.20;;;;;;1559928;75;1939;-60
2023/03/09 01:32:50;;;;;;;;;;;20.60;54.20;;;;;;1567778;75;1132;-61
2023/03/09 01:34:52;;;;;;;;;;;20.50;54.40;;;;;;1563013;74;1554;-58
2023/03/09 01:36:54;;;;;;;;;;;20.50;54.50;;;;;;1551415;74;720;-57
2023/03/09 01:38:56;;;;;;;;;;;20.60;54.10;;;;;;1565175;74;1127;-58
2023/03/09 01:40:58;;;;;;;;;;;20.60;54.30;;;;;;1559873;74;726;-58
2023/03/09 01:43:18;;;;;;;;;;;20.70;54.30;;;;;;1565171;74;1190;-59
2023/03/09 01:45:22;;;;;;;;;;;20.60;54.50;;;;;;1561926;75;877;-58
2023/03/09 01:47:24;;;;;;;;;;;20.60;54.60;;;;;;1562737;75;695;-58
2023/03/09 01:49:30;;;;;;;;;;;20.50;54.60;;;;;;1565701;74;1643;-58
2023/03/09 01:51:46;;;;;;;;;;;20.50;54.60;;;;;;1565527;74;1931;-58
2023/03/09 01:53:47;;;;;;;;;;;20.50;54.60;;;;;;1569829;75;777;-58
2023/03/09 01:55:50;;;;;;;;;;;20.50;54.80;;;;;;1563068;74;711;-58
2023/03/09 01:57:52;;;;;;;;;;;20.40;54.60;;;;;;1551557;74;670;-58
2023/03/09 01:59:55;;;;;;;;;;;20.40;54.50;;;;;;1562250;74;813;-58
2023/03/09 02:01:57;;;;;;;;;;;20.50;54.50;;;;;;1559692;75;1562;-56
2023/03/09 02:04:00;;;;;;;;;;;20.60;54.30;;;;;;1559057;75;750;-58
2023/03/09 02:06:03;;;;;;;;;;;20.60;54.10;;;;;;1549577;75;720;-57
2023/03/09 02:08:05;;;;;;;;;;;20.60;53.90;;;;;;1553299;74;737;-56
2023/03/09 02:10:12;;;;;;;;;;;20.60;53.90;;;;;;1565329;74;1926;-56
2023/03/09 02:12:14;;;;;;;;;;;20.60;53.90;;;;;;1565355;74;1141;-57
2023/03/09 02:14:16;;;;;;;;;;;20.70;53.90;;;;;;1563015;75;754;-57
2023/03/09 02:16:18;;;;;;;;;;;20.80;53.60;;;;;;1568790;75;1550;-57
2023/03/09 02:18:20;;;;;;;;;;;20.80;53.50;;;;;;1548916;75;735;-58
2023/03/09 02:20:32;;;;;;;;;;;20.80;53.50;;;;;;1572589;74;941;-60
2023/03/09 02:22:37;;;;;;;;;;;20.80;53.50;;;;;;1555816;75;1136;-58
2023/03/09 02:24:47;;;;;;;;;;;20.80;53.60;;;;;;1551579;75;708;-58
2023/03/09 02:26:54;;;;;;;;;;;20.70;53.60;;;;;;1549754;75;673;-56
2023/03/09 02:28:55;;;;;;;;;;;20.80;53.40;;;;;;1564919;74;710;-58
2023/03/09 02:30:57;;;;;;;;;;;20.80;53.40;;;;;;1563132;74;1943;-57
2023/03/09 02:33:06;;;;;;;;;;;20.70;53.40;;;;;;1552170;74;1108;-58
2023/03/09 02:35:09;;;;;;;;;;;20.80;53.50;;;;;;1564237;74;756;-58
2023/03/09 02:37:24;;;;;;;;;;;20.80;53.50;;;;;;1561241;75;671;-59
2023/03/09 02:39:30;;;;;;;;;;;20.80;53.70;;;;;;1552391;75;1006;-57
2023/03/09 02:41:32;;;;;;;;;;;20.70;53.90;;;;;;1549466;75;1170;-59
2023/03/09 02:43:35;;;;;;;;;;;20.70;53.90;;;;;;1562638;74;727;-57
2023/03/09 02:45:37;;;;;;;;;;;20.70;53.90;;;;;;1554269;74;1207;-59
2023/03/09 02:47:39;;;;;;;;;;;20.70;53.80;;;;;;1555971;74;732;-59
2023/03/09 02:49:40;;;;;;;;;;;20.80;53.50;;;;;;1562717;75;685;-60
2023/03/09 02:51:42;;;;;;;;;;;20.80;53.40;;;;;;1544338;75;1938;-59
2023/03/09 02:53:44;;;;;;;;;;;20.90;53.30;;;;;;1552583;74;769;-59
2023/03/09 02:55:46;;;;;;;;;;;21.00;53.10;;;;;;1549489;75;719;-59
2023/03/09 02:57:48;;;;;;;;;;;21.00;53.10;;;;;;1557835;75;693;-60
2023/03/09 02:59:50;;;;;;;;;;;21.00;52.90;;;;;;1546211;74;1554;-60
2023/03/09 03:01:52;;;;;;;;;;;21.00;52.80;;;;;;1548296;75;1173;-58
2023/03/09 03:03:53;;;;;;;;;;;21.00;52.80;;;;;;1552546;75;722;-57
2023/03/09 03:05:55;;;;;;;;;;;21.00;52.70;;;;;;1561333;75;692;-59
2023/03/09 03:07:58;;;;;;;;;;;21.00;52.60;;;;;;1557190;75;739;-58
2023/03/09 03:10:00;;;;;;;;;;;21.00;52.60;;;;;;1558881;75;803;-57
2023/03/09 03:12:02;;;;;;;;;;;21.10;52.80;;;;;;1561395;74;1899;-59
2023/03/09 03:14:04;;;;;;;;;;;21.00;52.70;;;;;;1555920;74;1297;-60
2023/03/09 03:16:06;;;;;;;;;;;21.00;52.90;;;;;;1550533;75;733;-58
2023/03/09 03:18:08;;;;;;;;;;;21.00;53.00;;;;;;1546936;74;677;-59
2023/03/09 03:20:14;;;;;;;;;;;20.90;53.20;;;;;;1560835;74;768;-57
2023/03/09 03:22:13;;;;;;;;;;;20.90;53.40;;;;;;1564626;75;1280;-58
2023/03/09 03:24:16;;;;;;;;;;;20.90;53.60;;;;;;1553416;74;741;-57
2023/03/09 03:26:18;;;;;;;;;;;20.80;53.70;;;;;;1558359;75;1528;-57
2023/03/09 03:28:19;;;;;;;;;;;20.70;54.00;;;;;;1546976;74;781;-59
2023/03/09 03:30:21;;;;;;;;;;;20.70;54.30;;;;;;1559317;74;798;-59
2023/03/09 03:32:23;;;;;;;;;;;20.60;54.40;;;;;;1556183;74;1904;-59
2023/03/09 03:34:25;;;;;;;;;;;20.70;54.70;;;;;;1553594;74;731;-57
2023/03/09 03:36:27;;;;;;;;;;;20.60;54.60;;;;;;1556702;75;704;-59
2023/03/09 03:38:29;;;;;;;;;;;20.60;54.80;;;;;;1550318;74;1123;-59
2023/03/09 03:40:31;;;;;;;;;;;20.60;55.10;;;;;;1543807;75;1554;-58
2023/03/09 03:42:33;;;;;;;;;;;20.70;55.10;;;;;;1554195;74;1168;-59
2023/03/09 03:44:34;;;;;;;;;;;20.70;55.10;;;;;;1555465;74;731;-58
2023/03/09 03:46:36;;;;;;;;;;;20.70;55.20;;;;;;1553377;75;807;-59
2023/03/09 03:48:38;;;;;;;;;;;20.60;55.00;;;;;;1542621;75;710;-58
2023/03/09 03:50:40;;;;;;;;;;;20.70;55.20;;;;;;1547136;75;1915;-60
2023/03/09 03:52:42;;;;;;;;;;;20.70;56.00;;;;;;1552112;75;1122;-59
2023/03/09 03:54:44;;;;;;;;;;;20.70;56.30;;;;;;1554094;75;1506;-58
2023/03/09 03:56:46;;;;;;;;;;;20.80;56.00;;;;;;1496809;77;735;-59
2023/03/09 03:58:48;;;;;;;;;;;20.80;56.00;;;;;;1495915;79;741;-59
2023/03/09 04:00:50;;;;;;;;;;;20.80;55.90;;;;;;1502147;79;813;-60
2023/03/09 04:02:51;;;;;;;;;;;20.80;55.80;;;;;;1500795;79;1126;-59
2023/03/09 04:04:53;;;;;;;;;;;20.70;55.90;;;;;;1499449;79;701;-59
2023/03/09 04:06:55;;;;;;;;;;;20.80;55.80;;;;;;1493488;79;768;-59
2023/03/09 04:08:57;;;;;;;;;;;20.90;56.20;;;;;;1494968;79;1518;-57
2023/03/09 04:10:59;;;;;;;;;;;20.80;55.80;;;;;;1569453;75;1912;-57
2023/03/09 04:13:01;;;;;;;;;;;20.80;56.20;;;;;;1563168;75;1145;-59
2023/03/09 04:15:03;;;;;;;;;;;20.80;56.20;;;;;;1551270;75;720;-58
2023/03/09 04:17:05;;;;;;;;;;;20.80;56.10;;;;;;1553347;75;749;-59
2023/03/09 04:19:07;;;;;;;;;;;20.80;56.10;;;;;;1552793;74;791;-60
2023/03/09 04:21:09;;;;;;;;;;;20.90;56.30;;;;;;1558941;75;1133;-59
2023/03/09 04:23:11;;;;;;;;;;;20.80;56.00;;;;;;1552302;75;1545;-59
2023/03/09 04:25:14;;;;;;;;;;;20.90;56.00;;;;;;1553668;75;673;-59
2023/03/09 04:27:16;;;;;;;;;;;20.90;56.00;;;;;;1553316;75;657;-58
2023/03/09 04:29:18;;;;;;;;;;;20.80;55.80;;;;;;1544892;75;756;-59
2023/03/09 04:31:20;;;;;;;;;;;20.90;56.00;;;;;;1555509;75;1936;-59
2023/03/09 04:33:22;;;;;;;;;;;20.90;56.00;;;;;;1554297;75;792;-59
2023/03/09 04:35:24;;;;;;;;;;;20.90;55.90;;;;;;1560227;75;735;-58
2023/03/09 04:37:26;;;;;;;;;;;21.00;55.90;;;;;;1554006;74;1405;-59
2023/03/09 04:39:28;;;;;;;;;;;20.90;55.90;;;;;;1556636;74;1078;-58
2023/03/09 04:41:29;;;;;;;;;;;20.90;55.70;;;;;;1543533;75;1192;-57
2023/03/09 04:43:31;;;;;;;;;;;21.00;55.70;;;;;;1551043;74;818;-61
2023/03/09 04:45:33;;;;;;;;;;;20.90;55.70;;;;;;1553445;75;781;-59
2023/03/09 04:47:35;;;;;;;;;;;20.90;55.90;;;;;;1549401;75;673;-59
2023/03/09 04:49:37;;;;;;;;;;;20.90;55.70;;;;;;1551538;75;781;-59
2023/03/09 04:51:39;;;;;;;;;;;21.00;56.30;;;;;;1553964;74;1941;-58
2023/03/09 04:53:41;;;;;;;;;;;21.00;56.20;;;;;;1539407;75;747;-59
2023/03/09 04:55:43;;;;;;;;;;;21.00;56.30;;;;;;1543210;75;749;-60
2023/03/09 04:57:44;;;;;;;;;;;21.00;56.80;;;;;;1554656;75;722;-59
2023/03/09 04:59:46;;;;;;;;;;;21.00;56.30;;;;;;1560647;74;794;-58
2023/03/09 05:01:48;;;;;;;;;;;21.00;56.00;;;;;;1552232;75;1143;-61
2023/03/09 05:03:50;;;;;;;;;;;21.00;55.70;;;;;;1551098;75;780;-59
2023/03/09 05:05:52;;;;;;;;;;;21.10;55.50;;;;;;1566379;74;1528;-59
2023/03/09 05:07:54;;;;;;;;;;;21.10;55.30;;;;;;1561328;75;729;-59
2023/03/09 05:09:56;;;;;;;;;;;21.10;55.20;;;;;;1560325;74;680;-58
2023/03/09 05:11:58;;;;;;;;;;;21.10;55.00;;;;;;1553632;75;1960;-59
2023/03/09 05:13:59;;;;;;;;;;;21.00;54.80;;;;;;1560826;75;833;-60
2023/03/09 05:16:03;;;;;;;;;;;21.00;54.90;;;;;;1555939;75;767;-61
2023/03/09 05:18:06;;;;;;;;;;;21.00;55.20;;;;;;1556772;74;754;-61
2023/03/09 05:20:09;;;;;;;;;;;21.00;55.30;;;;;;1562142;74;1554;-58
2023/03/09 05:22:11;;;;;;;;;;;21.00;55.20;;;;;;1551501;74;1120;-60
2023/03/09 05:24:13;;;;;;;;;;;21.00;55.20;;;;;;1554803;74;770;-59
2023/03/09 05:26:15;;;;;;;;;;;21.00;55.10;;;;;;1556189;74;1501;-60
2023/03/09 05:28:17;;;;;;;;;;;20.90;55.10;;;;;;1568493;74;1546;-58
2023/03/09 05:30:19;;;;;;;;;;;21.00;55.00;;;;;;1553651;74;1231;-60
2023/03/09 05:32:21;;;;;;;;;;;21.00;55.00;;;;;;1552990;74;1955;-59
2023/03/09 05:34:23;;;;;;;;;;;20.90;55.00;;;;;;1562468;74;1524;-60
2023/03/09 05:36:25;;;;;;;;;;;21.00;54.80;;;;;;1548583;75;739;-60
2023/03/09 05:38:27;;;;;;;;;;;20.90;54.80;;;;;;1547455;75;771;-59
2023/03/09 05:40:29;;;;;;;;;;;21.00;54.80;;;;;;1544256;75;741;-61
2023/03/09 05:42:31;;;;;;;;;;;20.90;55.20;;;;;;1546496;74;1115;-59
2023/03/09 05:44:33;;;;;;;;;;;20.90;55.40;;;;;;1553395;75;618;-58
2023/03/09 05:46:35;;;;;;;;;;;20.90;55.70;;;;;;1546889;74;714;-58
2023/03/09 05:48:37;;;;;;;;;;;21.00;55.70;;;;;;1543343;74;1556;-58
2023/03/09 05:50:39;;;;;;;;;;;21.00;55.20;;;;;;1551079;75;765;-59
2023/03/09 05:52:41;;;;;;;;;;;21.00;55.00;;;;;;1550213;74;1951;-57
2023/03/09 05:54:43;;;;;;;;;;;21.10;54.90;;;;;;1559563;74;696;-58
2023/03/09 05:56:45;;;;;;;;;;;21.00;54.50;;;;;;1559867;74;795;-60
2023/03/09 05:58:50;;;;;;;;;;;21.00;54.50;;;;;;1555600;74;783;-58
2023/03/09 06:00:52;;;;;;;;;;;21.00;54.50;;;;;;1551988;74;825;-58
2023/03/09 06:02:54;;;;;;;;;;;21.10;54.50;;;;;;1555547;74;1748;-59
2023/03/09 06:04:56;;;;;;;;;;;21.10;54.40;;;;;;1548942;75;708;-59
2023/03/09 06:06:58;;;;;;;;;;;21.20;54.20;;;;;;1552296;75;674;-61
2023/03/09 06:09:00;;;;;;;;;;;21.10;54.20;;;;;;1551705;74;677;-59
2023/03/09 06:11:02;;;;;;;;;;;21.20;54.00;;;;;;1572649;74;660;-57
2023/03/09 06:13:04;;;;;;;;;;;21.10;54.20;;;;;;1580477;75;1931;-58
2023/03/09 06:15:06;;;;;;;;;;;21.10;54.10;;;;;;1565745;75;1552;-59
2023/03/09 06:17:08;;;;;;;;;;;21.10;54.00;;;;;;1551469;75;714;-60
2023/03/09 06:19:10;;;;;;;;;;;21.10;54.00;;;;;;1552890;75;700;-59
2023/03/09 06:21:12;;;;;;;;;;;21.10;53.90;;;;;;1556099;75;1130;-61
2023/03/09 06:23:14;;;;;;;;;;;21.10;53.90;;;;;;1556620;75;735;-61
2023/03/09 06:25:16;;;;;;;;;;;21.10;53.60;;;;;;1558504;75;791;-59
2023/03/09 06:27:18;;;;;;;;;;;21.20;53.50;;;;;;1570642;75;932;-59
2023/03/09 06:29:20;;;;;;;;;;;21.20;53.40;;;;;;1557144;75;1515;-58
2023/03/09 06:31:22;;;;;;;;;;;21.20;53.30;;;;;;1559124;75;1191;-60
2023/03/09 06:33:24;;;;;;;;;;;21.30;53.30;;;;;;1555395;75;1928;-59
2023/03/09 06:35:25;;;;;;;;;;;21.20;53.10;;;;;;1561566;75;717;-58
2023/03/09 06:37:27;;;;;;;;;;;21.20;53.00;;;;;;1571781;75;786;-58
2023/03/09 06:39:29;;;;;;;;;;;21.20;53.00;;;;;;1561916;75;683;-58
2023/03/09 06:41:31;;;;;;;;;;;21.20;52.90;;;;;;1575996;75;1169;-59
2023/03/09 06:43:33;;;;;;;;;;;21.20;52.90;;;;;;1548954;75;1515;-58
2023/03/09 06:45:35;;;;;;;;;;;21.20;52.90;;;;;;1551298;75;686;-58
2023/03/09 06:47:37;;;;;;;;;;;21.20;52.90;;;;;;1543524;75;725;-60
2023/03/09 06:49:39;;;;;;;;;;;21.10;52.90;;;;;;1539934;75;803;-59
2023/03/09 06:51:41;;;;;;;;;;;21.00;53.10;;;;;;1559249;75;1145;-59
2023/03/09 06:53:43;;;;;;;;;;;21.00;53.30;;;;;;1550314;75;1852;-59
2023/03/09 06:55:44;;;;;;;;;;;20.90;53.40;;;;;;1551758;75;713;-59
2023/03/09 06:57:46;;;;;;;;;;;20.80;53.50;;;;;;1565922;75;1557;-59
2023/03/09 06:59:48;;;;;;;;;;;20.80;53.60;;;;;;1558436;75;840;-57
2023/03/09 07:01:50;;;;;;;;;;;20.80;53.60;;;;;;1551385;75;1138;-58
2023/03/09 07:03:52;;;;;;;;;;;20.70;53.60;;;;;;1541816;75;854;-59
2023/03/09 07:05:54;;;;;;;;;;;20.70;53.80;;;;;;1560387;75;776;-60
2023/03/09 07:07:56;;;;;;;;;;;20.70;53.90;;;;;;1558103;75;761;-59
2023/03/09 07:09:58;;;;;;;;;;;20.70;53.80;;;;;;1558926;75;785;-58
2023/03/09 07:12:00;;;;;;;;;;;20.70;53.90;;;;;;1568316;74;1942;-59
2023/03/09 07:14:01;;;;;;;;;;;20.70;53.90;;;;;;1550392;75;706;-60
2023/03/09 07:16:04;;;;;;;;;;;20.70;53.80;;;;;;1560335;75;751;-58
2023/03/09 07:18:05;;;;;;;;;;;20.80;53.60;;;;;;1561941;75;740;-59
2023/03/09 07:20:08;;;;;;;;;;;20.90;53.40;;;;;;1559826;74;674;-61
2023/03/09 07:22:11;;;;;;;;;;;20.80;53.40;;;;;;1560396;75;1101;-59
2023/03/09 07:24:12;;;;;;;;;;;20.90;53.20;;;;;;1550567;75;662;-57
2023/03/09 07:26:14;;;;;;;;;;;21.10;53.10;;;;;;1554703;75;1526;-59
2023/03/09 07:28:16;;;;;;;;;;;21.10;52.70;;;;;;1549575;75;816;-59
2023/03/09 07:30:18;;;;;;;;;;;21.10;52.60;;;;;;1549312;75;757;-58
2023/03/09 07:32:20;;;;;;;;;;;21.20;52.50;;;;;;1553625;75;1948;-58
2023/03/09 07:34:22;;;;;;;;;;;21.20;52.30;;;;;;1544277;75;722;-58
2023/03/09 07:36:24;;;;;;;;;;;21.20;52.20;;;;;;1561105;75;690;-60
2023/03/09 07:38:26;;;;;;;;;;;21.20;52.10;;;;;;1541389;75;867;-58
2023/03/09 07:40:28;;;;;;;;;;;21.20;52.00;;;;;;1548658;75;1535;-57
2023/03/09 07:42:30;;;;;;;;;;;21.20;51.90;;;;;;1555869;75;1164;-60
2023/03/09 07:44:32;;;;;;;;;;;21.20;51.90;;;;;;1561677;75;771;-59
2023/03/09 07:46:34;;;;;;;;;;;21.20;51.80;;;;;;1544216;75;778;-59
2023/03/09 07:48:37;;;;;;;;;;;21.30;52.00;;;;;;1550519;75;714;-59
2023/03/09 07:50:39;;;;;;;;;;;21.20;51.80;;;;;;1556365;75;709;-59
2023/03/09 07:52:41;;;;;;;;;;;21.20;51.80;;;;;;1545680;75;1937;-59
2023/03/09 07:54:43;;;;;;;;;;;21.20;51.70;;;;;;1561752;74;1485;-59
2023/03/09 07:56:50;;;;;;;;;;;21.20;51.70;;;;;;1571412;75;733;-60
2023/03/09 07:58:48;;;;;;;;;;;21.20;51.60;;;;;;1541941;75;1651;-57
2023/03/09 08:00:50;;;;;;;;;;;21.20;51.60;;;;;;1530286;76;1055;-59
2023/03/09 08:02:52;;;;;;;;;;;21.20;51.50;;;;;;1562632;75;1127;-58
2023/03/09 08:04:54;;;;;;;;;;;21.20;51.60;;;;;;1569478;75;722;-59
2023/03/09 08:06:56;;;;;;;;;;;21.20;51.50;;;;;;1576143;75;675;-60
2023/03/09 08:08:58;;;;;;;;;;;21.20;51.60;;;;;;1559478;75;1656;-59
2023/03/09 08:11:00;;;;;;;;;;;21.20;51.60;;;;;;1569698;75;762;-60
2023/03/09 08:13:01;;;;;;;;;;;21.20;51.50;;;;;;1547749;75;1940;-60
2023/03/09 08:15:04;;;;;;;;;;;21.20;51.60;;;;;;1552255;75;747;-60
2023/03/09 08:17:06;;;;;;;;;;;21.20;51.50;;;;;;1564543;75;729;-59
2023/03/09 08:19:07;;;;;;;;;;;21.10;51.50;;;;;;1561347;74;765;-58
2023/03/09 08:21:11;;;;;;;;;;;21.20;51.50;;;;;;1565586;75;1147;-59
2023/03/09 08:23:14;;;;;;;;;;;21.20;51.60;;;;;;1555872;75;1769;-59
2023/03/09 08:25:15;;;;;;;;;;;21.10;51.50;;;;;;1552843;75;651;-60
2023/03/09 08:27:17;;;;;;;;;;;21.20;51.60;;;;;;1559695;75;1084;-58
2023/03/09 08:29:19;;;;;;;;;;;21.10;51.60;;;;;;1558790;76;715;-59
2023/03/09 08:31:22;;;;;;;;;;;21.20;51.50;;;;;;1554524;76;1180;-59
2023/03/09 08:33:24;;;;;;;;;;;21.10;51.60;;;;;;1552185;76;1932;-59
2023/03/09 08:35:28;;;;;;;;;;;21.10;51.60;;;;;;1544104;76;798;-59
2023/03/09 08:37:30;;;;;;;;;;;21.10;51.60;;;;;;1552432;76;1673;-59
2023/03/09 08:39:32;;;;;;;;;;;21.10;51.60;;;;;;1546488;76;726;-58
2023/03/09 08:41:34;;;;;;;;;;;21.10;51.60;;;;;;1543264;76;1218;-60
2023/03/09 08:43:36;;;;;;;;;;;21.10;51.50;;;;;;1542809;75;580;-60
2023/03/09 08:45:38;;;;;;;;;;;21.10;51.60;;;;;;1547646;76;687;-58
2023/03/09 08:47:40;;;;;;;;;;;21.10;51.60;;;;;;1543052;76;810;-59
2023/03/09 08:49:42;;;;;;;;;;;21.00;51.50;;;;;;1539699;76;732;-58
2023/03/09 08:51:44;;;;;;;;;;;21.00;51.50;;;;;;1544024;76;1130;-59
2023/03/09 08:53:46;;;;;;;;;;;21.00;51.50;;;;;;1555520;76;1906;-62
2023/03/09 08:55:48;;;;;;;;;;;21.00;51.50;;;;;;1543697;76;724;-58
2023/03/09 08:57:51;;;;;;;;;;;21.00;51.50;;;;;;1543596;76;742;-59
2023/03/09 08:59:53;;;;;;;;;;;21.00;51.60;;;;;;1540656;76;743;-60
2023/03/09 09:01:55;;;;;;;;;;;20.90;51.60;;;;;;1553880;76;1149;-59
2023/03/09 09:03:57;;;;;;;;;;;21.00;51.50;;;;;;1557888;76;1524;-58
2023/03/09 09:06:12;;;;;;;;;;;21.00;51.60;;;;;;1548715;76;744;-59
2023/03/09 09:08:14;;;;;;;;;;;21.00;51.50;;;;;;1540931;76;1340;-59
2023/03/09 09:10:16;;;;;;;;;;;21.00;51.60;;;;;;1534195;76;732;-59
2023/03/09 09:12:18;;;;;;;;;;;20.90;51.60;;;;;;1551437;76;1146;-58
2023/03/09 09:14:20;;;;;;;;;;;21.00;51.60;;;;;;1552955;76;1929;-58
2023/03/09 09:16:21;;;;;;;;;;;21.00;51.60;;;;;;1534884;76;714;-59
2023/03/09 09:18:23;;;;;;;;;;;20.90;51.60;;;;;;1540434;75;1557;-58
2023/03/09 09:20:25;;;;;;;;;;;20.90;51.60;;;;;;1542412;76;732;-59
2023/03/09 09:22:27;;;;;;;;;;;21.00;51.50;;;;;;1541738;76;1114;-59
2023/03/09 09:24:34;;;;;;;;;;;20.90;51.60;;;;;;1541661;76;713;-59
2023/03/09 09:26:36;;;;;;;;;;;21.00;51.50;;;;;;1536965;75;1409;-60
2023/03/09 09:28:38;;;;;;;;;;;20.90;51.50;;;;;;1561163;74;1054;-62
2023/03/09 09:30:41;;;;;;;;;;;20.90;51.50;;;;;;1562131;75;699;-59
2023/03/09 09:32:44;;;;;;;;;;;20.80;51.50;;;;;;1551244;75;1939;-60
2023/03/09 09:34:46;;;;;;;;;;;20.90;51.60;;;;;;1559193;75;747;-59
2023/03/09 09:36:48;;;;;;;;;;;20.90;51.60;;;;;;1499437;77;736;-58
2023/03/09 09:38:50;;;;;;;;;;;20.90;51.50;;;;;;1506889;79;742;-58
2023/03/09 09:40:52;;;;;;;;;;;20.90;51.60;;;;;;1569359;75;736;-57
2023/03/09 09:42:54;;;;;;;;;;;20.90;51.60;;;;;;1559080;74;1146;-58
2023/03/09 09:44:56;;;;;;;;;;;20.90;51.50;;;;;;1553438;74;763;-59
2023/03/09 09:46:59;;;;;;;;;;;20.90;51.50;;;;;;1571419;75;1586;-58
2023/03/09 09:49:01;;;;;;;;;;;20.80;51.40;;;;;;1565609;75;730;-59
2023/03/09 09:51:04;;;;;;;;;;;20.90;51.50;;;;;;1560834;75;743;-58
2023/03/09 09:53:07;;;;;;;;;;;20.90;51.50;;;;;;1574618;75;1928;-60
2023/03/09 09:55:11;;;;;;;;;;;20.90;51.50;;;;;;1559708;75;720;-59
2023/03/09 09:57:17;;;;;;;;;;;20.80;51.40;;;;;;1555741;75;722;-59
2023/03/09 09:59:20;;;;;;;;;;;20.80;51.40;;;;;;1519316;75;1052;-58
2023/03/09 10:01:42;;;;;;;;;;;20.90;51.50;;;;;;1553440;75;1522;-58
2023/03/09 10:03:45;;;;;;;;;;;20.80;51.40;;;;;;1556985;75;1929;-58
2023/03/09 10:05:51;;;;;;;;;;;20.90;51.50;;;;;;1520558;76;733;-60
2023/03/09 10:07:53;;;;;;;;;;;20.80;51.50;;;;;;1553393;75;807;-59
2023/03/09 10:09:59;;;;;;;;;;;20.90;51.50;;;;;;1557418;75;733;-59
2023/03/09 10:12:02;;;;;;;;;;;20.70;51.40;;;;;;1554838;75;1151;-59
2023/03/09 10:14:06;;;;;;;;;;;20.80;51.50;;;;;;1550637;75;1929;-59
2023/03/09 10:16:09;;;;;;;;;;;20.70;51.40;;;;;;1551584;75;731;-59
2023/03/09 10:18:13;;;;;;;;;;;20.80;51.40;;;;;;1549502;75;715;-59
2023/03/09 10:20:16;;;;;;;;;;;20.80;51.30;;;;;;1547408;74;825;-60
2023/03/09 10:22:20;;;;;;;;;;;20.80;51.40;;;;;;1555517;74;1139;-59
2023/03/09 10:24:22;;;;;;;;;;;20.80;51.40;;;;;;1560630;75;707;-59
2023/03/09 10:26:26;;;;;;;;;;;20.80;51.40;;;;;;1562610;75;603;-60
2023/03/09 10:28:28;;;;;;;;;;;20.80;51.40;;;;;;1569719;75;1901;-58
2023/03/09 10:30:34;;;;;;;;;;;20.70;51.40;;;;;;1553906;76;664;-59
2023/03/09 10:32:50;;;;;;;;;;;20.70;51.40;;;;;;1555967;75;1878;-59
2023/03/09 10:34:59;;;;;;;;;;;20.70;51.40;;;;;;1557805;76;1936;-57
2023/03/09 10:37:03;;;;;;;;;;;20.70;51.50;;;;;;1555898;76;703;-59
2023/03/09 10:39:07;;;;;;;;;;;20.70;51.50;;;;;;1554684;76;773;-60
2023/03/09 10:41:11;;;;;;;;;;;20.70;51.40;;;;;;1553892;75;1799;-59
2023/03/09 10:43:29;;;;;;;;;;;20.70;51.50;;;;;;1555240;74;1850;-61
2023/03/09 10:45:31;;;;;;;;;;;20.70;51.40;;;;;;1557950;75;746;-59
2023/03/09 10:47:52;;;;;;;;;;;20.70;51.40;;;;;;1556134;76;752;-58
2023/03/09 10:49:58;;;;;;;;;;;20.70;51.50;;;;;;1558593;75;703;-59
2023/03/09 10:52:02;;;;;;;;;;;20.70;51.40;;;;;;1551671;75;1784;-59
2023/03/09 10:54:14;;;;;;;;;;;20.70;51.30;;;;;;1551862;74;1929;-59
2023/03/09 10:56:18;;;;;;;;;;;20.70;51.40;;;;;;1520742;75;1545;-57
2023/03/09 10:58:25;;;;;;;;;;;20.70;51.30;;;;;;1552457;75;719;-61
2023/03/09 11:00:25;;;;;;;;;;;20.70;51.40;;;;;;1548630;76;1200;-58
2023/03/09 11:02:31;;;;;;;;;;;20.70;51.30;;;;;;1556235;76;1143;-59
2023/03/09 11:04:36;;;;;;;;;;;20.60;51.20;;;;;;1568426;75;800;-59
2023/03/09 11:06:38;;;;;;;;;;;20.60;51.30;;;;;;1556927;75;764;-59
2023/03/09 11:08:44;;;;;;;;;;;20.70;51.40;;;;;;1567575;75;677;-60
2023/03/09 11:10:46;;;;;;;;;;;20.70;51.30;;;;;;1566813;75;1492;-59
2023/03/09 11:12:48;;;;;;;;;;;20.60;51.20;;;;;;1554407;75;1116;-60
2023/03/09 11:14:54;;;;;;;;;;;20.70;51.30;;;;;;1561834;75;1936;-60
2023/03/09 11:16:57;;;;;;;;;;;20.70;51.30;;;;;;1559966;75;924;-58
2023/03/09 11:19:06;;;;;;;;;;;20.70;51.30;;;;;;1561220;74;752;-60
2023/03/09 11:21:08;;;;;;;;;;;20.60;51.20;;;;;;1567200;75;1084;-59
2023/03/09 11:23:11;;;;;;;;;;;20.60;51.10;;;;;;1552998;76;730;-60
2023/03/09 11:25:17;;;;;;;;;;;20.60;51.10;;;;;;1555555;75;1531;-59
2023/03/09 11:27:23;;;;;;;;;;;20.60;51.10;;;;;;1528263;76;1644;-58
2023/03/09 11:29:33;;;;;;;;;;;20.60;51.10;;;;;;1565759;75;1123;-59
2023/03/09 11:31:38;;;;;;;;;;;20.60;51.00;;;;;;1562037;75;1182;-58
2023/03/09 11:33:40;;;;;;;;;;;20.70;51.20;;;;;;1570718;75;1906;-61
2023/03/09 11:35:42;;;;;;;;;;;20.70;51.20;;;;;;1565868;75;790;-59
2023/03/09 11:37:49;;;;;;;;;;;20.60;51.10;;;;;;1555419;75;593;-59
2023/03/09 11:39:52;;;;;;;;;;;20.70;51.20;;;;;;1565890;75;1870;-59
2023/03/09 11:41:54;;;;;;;;;;;20.60;51.00;;;;;;1560674;75;1148;-58
2023/03/09 11:44:00;;;;;;;;;;;20.70;51.10;;;;;;1570931;75;722;-59
2023/03/09 11:46:02;;;;;;;;;;;20.60;51.00;;;;;;1561252;75;1799;-58
2023/03/09 11:48:05;;;;;;;;;;;20.60;51.00;;;;;;1569411;75;749;-58
2023/03/09 11:50:08;;;;;;;;;;;20.60;51.10;;;;;;1566281;75;804;-59
2023/03/09 11:52:14;;;;;;;;;;;20.70;51.20;;;;;;1555750;74;2068;-59
2023/03/09 11:54:30;;;;;;;;;;;20.70;51.10;;;;;;1557430;75;2172;-59
2023/03/09 11:56:37;;;;;;;;;;;20.70;51.10;;;;;;1549621;75;655;-59
2023/03/09 11:58:40;;;;;;;;;;;20.60;51.00;;;;;;1552372;75;673;-60
2023/03/09 12:00:44;;;;;;;;;;;20.70;51.10;;;;;;1570166;75;626;-58
2023/03/09 12:02:59;;;;;;;;;;;20.70;51.00;;;;;;1567064;75;1184;-59
2023/03/09 12:05:01;;;;;;;;;;;20.70;51.10;;;;;;1571008;75;701;-60
2023/03/09 12:07:05;;;;;;;;;;;20.70;51.10;;;;;;1573610;75;1505;-60
2023/03/09 12:09:08;;;;;;;;;;;20.70;51.00;;;;;;1560913;75;1827;-60
2023/03/09 12:11:24;;;;;;;;;;;20.60;50.90;;;;;;1571344;75;1156;-60
2023/03/09 12:13:27;;;;;;;;;;;20.70;51.00;;;;;;1567455;75;752;-60